sensor_id;sensor_type;location;lat;lon;timestamp;temperature;humidity
40538;DHT22;27925;41.874;12.526;2022-08-30T00:01:33;27.20;82.50
40538;DHT22;27925;41.874;12.526;2022-08-30T00:04:00;27.30;82.50
40538;DHT22;27925;41.874;12.526;2022-08-30T00:06:27;27.20;82.80
40538;DHT22;27925;41.874;12.526;2022-08-30T00:08:54;27.20;82.80
40538;DHT22;27925;41.874;12.526;2022-08-30T00:11:23;27.20;82.60
40538;DHT22;27925;41.874;12.526;2022-08-30T00:13:52;27.30;82.90
40538;DHT22;27925;41.874;12.526;2022-08-30T00:16:20;27.20;82.80
40538;DHT22;27925;41.874;12.526;2022-08-30T00:18:46;27.20;83.20
40538;DHT22;27925;41.874;12.526;2022-08-30T00:21:12;27.20;83.50
40538;DHT22;27925;41.874;12.526;2022-08-30T00:23:38;27.10;83.60
40538;DHT22;27925;41.874;12.526;2022-08-30T00:26:05;27.10;84.00
40538;DHT22;27925;41.874;12.526;2022-08-30T00:28:31;27.00;84.20
40538;DHT22;27925;41.874;12.526;2022-08-30T00:30:59;27.00;84.30
40538;DHT22;27925;41.874;12.526;2022-08-30T00:33:27;27.00;84.50
40538;DHT22;27925;41.874;12.526;2022-08-30T00:35:53;27.00;84.50
40538;DHT22;27925;41.874;12.526;2022-08-30T00:38:19;27.00;84.70
40538;DHT22;27925;41.874;12.526;2022-08-30T00:40:45;27.00;84.80
40538;DHT22;27925;41.874;12.526;2022-08-30T00:43:13;26.90;85.00
40538;DHT22;27925;41.874;12.526;2022-08-30T00:45:39;26.90;84.90
40538;DHT22;27925;41.874;12.526;2022-08-30T00:48:06;27.00;85.30
40538;DHT22;27925;41.874;12.526;2022-08-30T00:50:39;26.90;85.50
40538;DHT22;27925;41.874;12.526;2022-08-30T00:53:08;26.90;86.50
40538;DHT22;27925;41.874;12.526;2022-08-30T00:55:35;26.80;85.90
40538;DHT22;27925;41.874;12.526;2022-08-30T00:58:03;26.80;86.30
40538;DHT22;27925;41.874;12.526;2022-08-30T01:00:30;26.80;86.30
40538;DHT22;27925;41.874;12.526;2022-08-30T01:02:56;26.80;86.30
40538;DHT22;27925;41.874;12.526;2022-08-30T01:05:22;26.80;86.10
40538;DHT22;27925;41.874;12.526;2022-08-30T01:07:48;26.80;86.60
40538;DHT22;27925;41.874;12.526;2022-08-30T01:10:14;26.80;85.80
40538;DHT22;27925;41.874;12.526;2022-08-30T01:12:41;26.80;85.50
40538;DHT22;27925;41.874;12.526;2022-08-30T01:15:09;26.80;85.10
40538;DHT22;27925;41.874;12.526;2022-08-30T01:17:35;26.80;85.10
40538;DHT22;27925;41.874;12.526;2022-08-30T01:20:08;26.80;84.70
40538;DHT22;27925;41.874;12.526;2022-08-30T01:23:09;26.80;84.80
40538;DHT22;27925;41.874;12.526;2022-08-30T01:25:37;26.80;85.10
40538;DHT22;27925;41.874;12.526;2022-08-30T01:28:06;26.70;84.30
40538;DHT22;27925;41.874;12.526;2022-08-30T01:30:33;26.70;84.10
40538;DHT22;27925;41.874;12.526;2022-08-30T01:33:02;26.70;83.70
40538;DHT22;27925;41.874;12.526;2022-08-30T01:38:10;26.70;83.60
40538;DHT22;27925;41.874;12.526;2022-08-30T01:40:36;26.70;82.70
40538;DHT22;27925;41.874;12.526;2022-08-30T01:43:02;26.60;82.50
40538;DHT22;27925;41.874;12.526;2022-08-30T01:45:28;26.60;82.30
40538;DHT22;27925;41.874;12.526;2022-08-30T01:47:53;26.50;82.00
40538;DHT22;27925;41.874;12.526;2022-08-30T01:50:19;26.50;81.80
40538;DHT22;27925;41.874;12.526;2022-08-30T01:52:45;26.50;81.50
40538;DHT22;27925;41.874;12.526;2022-08-30T01:55:10;26.40;81.40
40538;DHT22;27925;41.874;12.526;2022-08-30T01:57:36;26.30;81.20
40538;DHT22;27925;41.874;12.526;2022-08-30T02:00:06;26.30;81.20
40538;DHT22;27925;41.874;12.526;2022-08-30T02:02:32;26.30;81.00
40538;DHT22;27925;41.874;12.526;2022-08-30T02:04:58;26.30;80.90
40538;DHT22;27925;41.874;12.526;2022-08-30T02:07:24;26.40;80.90
40538;DHT22;27925;41.874;12.526;2022-08-30T02:09:51;26.40;80.30
40538;DHT22;27925;41.874;12.526;2022-08-30T02:12:17;26.40;80.00
40538;DHT22;27925;41.874;12.526;2022-08-30T02:14:43;26.40;79.80
40538;DHT22;27925;41.874;12.526;2022-08-30T02:17:13;26.30;80.30
40538;DHT22;27925;41.874;12.526;2022-08-30T02:19:39;26.30;79.60
40538;DHT22;27925;41.874;12.526;2022-08-30T02:22:05;26.30;79.40
40538;DHT22;27925;41.874;12.526;2022-08-30T02:24:31;26.20;78.90
40538;DHT22;27925;41.874;12.526;2022-08-30T02:26:57;26.10;78.90
40538;DHT22;27925;41.874;12.526;2022-08-30T02:29:24;26.10;78.60
40538;DHT22;27925;41.874;12.526;2022-08-30T02:31:50;26.10;79.10
40538;DHT22;27925;41.874;12.526;2022-08-30T02:34:17;26.10;78.40
40538;DHT22;27925;41.874;12.526;2022-08-30T02:36:43;26.00;78.40
40538;DHT22;27925;41.874;12.526;2022-08-30T02:39:11;26.00;78.10
40538;DHT22;27925;41.874;12.526;2022-08-30T02:41:37;25.90;78.30
40538;DHT22;27925;41.874;12.526;2022-08-30T02:44:04;25.90;78.30
40538;DHT22;27925;41.874;12.526;2022-08-30T02:46:30;25.90;77.80
40538;DHT22;27925;41.874;12.526;2022-08-30T02:48:56;25.90;77.60
40538;DHT22;27925;41.874;12.526;2022-08-30T02:51:22;25.90;77.40
40538;DHT22;27925;41.874;12.526;2022-08-30T02:53:47;25.90;77.40
40538;DHT22;27925;41.874;12.526;2022-08-30T02:56:14;25.80;77.70
40538;DHT22;27925;41.874;12.526;2022-08-30T02:58:41;25.80;77.60
40538;DHT22;27925;41.874;12.526;2022-08-30T03:01:08;25.80;77.50
40538;DHT22;27925;41.874;12.526;2022-08-30T03:03:34;25.80;77.30
40538;DHT22;27925;41.874;12.526;2022-08-30T03:06:00;25.70;77.30
40538;DHT22;27925;41.874;12.526;2022-08-30T03:08:28;25.70;77.70
40538;DHT22;27925;41.874;12.526;2022-08-30T03:10:54;25.70;77.70
40538;DHT22;27925;41.874;12.526;2022-08-30T03:13:22;25.60;77.70
40538;DHT22;27925;41.874;12.526;2022-08-30T03:15:48;25.60;77.90
40538;DHT22;27925;41.874;12.526;2022-08-30T03:18:16;25.70;78.40
40538;DHT22;27925;41.874;12.526;2022-08-30T03:20:41;25.70;77.50
40538;DHT22;27925;41.874;12.526;2022-08-30T03:23:07;25.70;77.60
40538;DHT22;27925;41.874;12.526;2022-08-30T03:25:33;25.60;77.50
40538;DHT22;27925;41.874;12.526;2022-08-30T03:27:59;25.60;77.60
40538;DHT22;27925;41.874;12.526;2022-08-30T03:30:25;25.50;77.80
40538;DHT22;27925;41.874;12.526;2022-08-30T03:32:51;25.50;78.00
40538;DHT22;27925;41.874;12.526;2022-08-30T03:35:17;25.50;78.00
40538;DHT22;27925;41.874;12.526;2022-08-30T03:37:43;25.50;78.00
40538;DHT22;27925;41.874;12.526;2022-08-30T03:40:10;25.50;78.20
40538;DHT22;27925;41.874;12.526;2022-08-30T03:42:36;25.50;78.20
40538;DHT22;27925;41.874;12.526;2022-08-30T03:45:03;25.50;78.00
40538;DHT22;27925;41.874;12.526;2022-08-30T03:47:29;25.50;78.00
40538;DHT22;27925;41.874;12.526;2022-08-30T03:49:55;25.50;77.90
40538;DHT22;27925;41.874;12.526;2022-08-30T03:52:21;25.50;78.20
40538;DHT22;27925;41.874;12.526;2022-08-30T03:54:47;25.50;78.20
40538;DHT22;27925;41.874;12.526;2022-08-30T03:57:12;25.50;78.00
40538;DHT22;27925;41.874;12.526;2022-08-30T03:59:38;25.60;77.90
40538;DHT22;27925;41.874;12.526;2022-08-30T04:02:04;25.60;77.90
40538;DHT22;27925;41.874;12.526;2022-08-30T04:04:30;25.60;77.80
40538;DHT22;27925;41.874;12.526;2022-08-30T04:06:56;25.60;78.10
40538;DHT22;27925;41.874;12.526;2022-08-30T04:09:22;25.50;78.10
40538;DHT22;27925;41.874;12.526;2022-08-30T04:11:47;25.50;78.40
40538;DHT22;27925;41.874;12.526;2022-08-30T04:14:13;25.50;78.10
40538;DHT22;27925;41.874;12.526;2022-08-30T04:16:39;25.50;78.30
40538;DHT22;27925;41.874;12.526;2022-08-30T04:19:05;25.50;78.30
40538;DHT22;27925;41.874;12.526;2022-08-30T04:21:31;25.60;78.50
40538;DHT22;27925;41.874;12.526;2022-08-30T04:23:57;25.60;78.30
40538;DHT22;27925;41.874;12.526;2022-08-30T04:26:22;25.60;78.60
40538;DHT22;27925;41.874;12.526;2022-08-30T04:28:48;25.60;78.40
40538;DHT22;27925;41.874;12.526;2022-08-30T04:31:16;25.60;78.40
40538;DHT22;27925;41.874;12.526;2022-08-30T04:33:42;25.60;78.40
40538;DHT22;27925;41.874;12.526;2022-08-30T04:36:10;25.60;78.60
40538;DHT22;27925;41.874;12.526;2022-08-30T04:38:39;25.50;78.70
40538;DHT22;27925;41.874;12.526;2022-08-30T04:41:11;25.50;78.40
40538;DHT22;27925;41.874;12.526;2022-08-30T04:43:37;25.50;78.50
40538;DHT22;27925;41.874;12.526;2022-08-30T04:46:06;25.50;78.50
40538;DHT22;27925;41.874;12.526;2022-08-30T04:48:32;25.50;78.70
40538;DHT22;27925;41.874;12.526;2022-08-30T04:50:58;25.50;78.60
40538;DHT22;27925;41.874;12.526;2022-08-30T04:53:24;25.50;78.80
40538;DHT22;27925;41.874;12.526;2022-08-30T04:55:49;25.40;78.40
40538;DHT22;27925;41.874;12.526;2022-08-30T04:58:15;25.40;78.50
40538;DHT22;27925;41.874;12.526;2022-08-30T05:00:45;25.40;78.90
40538;DHT22;27925;41.874;12.526;2022-08-30T05:03:10;25.40;79.20
40538;DHT22;27925;41.874;12.526;2022-08-30T05:05:37;25.40;79.30
40538;DHT22;27925;41.874;12.526;2022-08-30T05:08:11;25.30;79.80
40538;DHT22;27925;41.874;12.526;2022-08-30T05:10:39;25.30;80.00
40538;DHT22;27925;41.874;12.526;2022-08-30T05:13:06;25.30;79.80
40538;DHT22;27925;41.874;12.526;2022-08-30T05:15:31;25.30;80.00
40538;DHT22;27925;41.874;12.526;2022-08-30T05:17:57;25.40;80.20
40538;DHT22;27925;41.874;12.526;2022-08-30T05:20:23;25.30;80.30
40538;DHT22;27925;41.874;12.526;2022-08-30T05:22:49;25.40;80.30
40538;DHT22;27925;41.874;12.526;2022-08-30T05:25:23;25.40;80.20
40538;DHT22;27925;41.874;12.526;2022-08-30T05:27:50;25.40;80.60
40538;DHT22;27925;41.874;12.526;2022-08-30T05:30:17;25.40;79.70
40538;DHT22;27925;41.874;12.526;2022-08-30T05:32:43;25.40;79.90
40538;DHT22;27925;41.874;12.526;2022-08-30T05:35:11;25.40;80.10
40538;DHT22;27925;41.874;12.526;2022-08-30T05:37:37;25.40;79.90
40538;DHT22;27925;41.874;12.526;2022-08-30T05:40:04;25.40;79.80
40538;DHT22;27925;41.874;12.526;2022-08-30T05:42:30;25.40;79.80
40538;DHT22;27925;41.874;12.526;2022-08-30T05:44:56;25.50;79.60
40538;DHT22;27925;41.874;12.526;2022-08-30T05:47:22;25.50;79.50
40538;DHT22;27925;41.874;12.526;2022-08-30T05:49:48;25.70;79.30
40538;DHT22;27925;41.874;12.526;2022-08-30T05:52:17;25.80;78.70
40538;DHT22;27925;41.874;12.526;2022-08-30T05:54:44;26.00;78.80
40538;DHT22;27925;41.874;12.526;2022-08-30T05:57:10;26.20;78.10
40538;DHT22;27925;41.874;12.526;2022-08-30T05:59:36;26.50;76.80
40538;DHT22;27925;41.874;12.526;2022-08-30T06:02:02;26.80;75.90
40538;DHT22;27925;41.874;12.526;2022-08-30T06:04:28;27.10;74.90
40538;DHT22;27925;41.874;12.526;2022-08-30T06:06:53;27.30;74.20
40538;DHT22;27925;41.874;12.526;2022-08-30T06:09:19;27.60;73.20
40538;DHT22;27925;41.874;12.526;2022-08-30T06:11:45;27.80;72.40
40538;DHT22;27925;41.874;12.526;2022-08-30T06:14:12;27.90;72.00
40538;DHT22;27925;41.874;12.526;2022-08-30T06:16:39;28.10;71.10
40538;DHT22;27925;41.874;12.526;2022-08-30T06:19:06;28.20;71.00
40538;DHT22;27925;41.874;12.526;2022-08-30T06:21:38;28.40;70.10
40538;DHT22;27925;41.874;12.526;2022-08-30T06:24:06;28.60;69.30
40538;DHT22;27925;41.874;12.526;2022-08-30T06:26:39;28.70;68.60
40538;DHT22;27925;41.874;12.526;2022-08-30T06:29:06;28.90;68.50
40538;DHT22;27925;41.874;12.526;2022-08-30T06:31:32;29.20;67.60
40538;DHT22;27925;41.874;12.526;2022-08-30T06:33:58;29.40;66.60
40538;DHT22;27925;41.874;12.526;2022-08-30T06:36:25;29.50;66.00
40538;DHT22;27925;41.874;12.526;2022-08-30T06:38:52;29.70;65.70
40538;DHT22;27925;41.874;12.526;2022-08-30T06:41:21;29.80;65.20
40538;DHT22;27925;41.874;12.526;2022-08-30T06:43:48;30.00;64.50
40538;DHT22;27925;41.874;12.526;2022-08-30T06:46:18;30.00;64.00
40538;DHT22;27925;41.874;12.526;2022-08-30T06:48:43;30.10;63.90
40538;DHT22;27925;41.874;12.526;2022-08-30T06:51:09;30.10;63.60
40538;DHT22;27925;41.874;12.526;2022-08-30T06:53:36;30.20;63.30
40538;DHT22;27925;41.874;12.526;2022-08-30T06:56:07;30.20;62.40
40538;DHT22;27925;41.874;12.526;2022-08-30T06:58:35;30.20;63.40
40538;DHT22;27925;41.874;12.526;2022-08-30T07:01:03;30.10;61.80
40538;DHT22;27925;41.874;12.526;2022-08-30T07:03:29;30.20;61.90
40538;DHT22;27925;41.874;12.526;2022-08-30T07:05:56;30.30;62.60
40538;DHT22;27925;41.874;12.526;2022-08-30T07:08:22;30.50;62.00
40538;DHT22;27925;41.874;12.526;2022-08-30T07:10:50;30.50;62.20
40538;DHT22;27925;41.874;12.526;2022-08-30T07:13:19;30.50;60.90
40538;DHT22;27925;41.874;12.526;2022-08-30T07:15:46;30.70;62.10
40538;DHT22;27925;41.874;12.526;2022-08-30T07:18:13;30.80;61.40
40538;DHT22;27925;41.874;12.526;2022-08-30T07:21:00;30.90;61.20
40538;DHT22;27925;41.874;12.526;2022-08-30T07:23:30;31.00;61.10
40538;DHT22;27925;41.874;12.526;2022-08-30T07:25:56;31.00;60.50
40538;DHT22;27925;41.874;12.526;2022-08-30T07:28:21;31.00;60.50
40538;DHT22;27925;41.874;12.526;2022-08-30T07:30:47;31.00;60.60
40538;DHT22;27925;41.874;12.526;2022-08-30T07:33:13;30.90;60.30
40538;DHT22;27925;41.874;12.526;2022-08-30T07:35:39;30.90;60.10
40538;DHT22;27925;41.874;12.526;2022-08-30T07:38:04;30.90;59.70
40538;DHT22;27925;41.874;12.526;2022-08-30T07:40:30;30.70;60.00
40538;DHT22;27925;41.874;12.526;2022-08-30T07:42:56;30.70;60.30
40538;DHT22;27925;41.874;12.526;2022-08-30T07:45:23;30.70;60.00
40538;DHT22;27925;41.874;12.526;2022-08-30T07:47:48;30.60;60.10
40538;DHT22;27925;41.874;12.526;2022-08-30T07:50:14;30.50;60.40
40538;DHT22;27925;41.874;12.526;2022-08-30T07:52:41;30.50;60.30
40538;DHT22;27925;41.874;12.526;2022-08-30T07:55:07;30.40;60.60
40538;DHT22;27925;41.874;12.526;2022-08-30T07:57:33;30.40;60.70
40538;DHT22;27925;41.874;12.526;2022-08-30T07:59:59;30.30;60.50
40538;DHT22;27925;41.874;12.526;2022-08-30T08:02:25;30.20;60.90
40538;DHT22;27925;41.874;12.526;2022-08-30T08:04:51;30.10;61.20
40538;DHT22;27925;41.874;12.526;2022-08-30T08:07:17;30.20;61.10
40538;DHT22;27925;41.874;12.526;2022-08-30T08:09:43;30.20;61.00
40538;DHT22;27925;41.874;12.526;2022-08-30T08:12:08;30.20;61.10
40538;DHT22;27925;41.874;12.526;2022-08-30T08:14:35;30.30;61.30
40538;DHT22;27925;41.874;12.526;2022-08-30T08:17:01;30.20;61.40
40538;DHT22;27925;41.874;12.526;2022-08-30T08:19:28;30.20;61.30
40538;DHT22;27925;41.874;12.526;2022-08-30T08:21:53;30.30;61.10
40538;DHT22;27925;41.874;12.526;2022-08-30T08:24:22;30.20;60.00
40538;DHT22;27925;41.874;12.526;2022-08-30T08:26:48;30.10;60.10
40538;DHT22;27925;41.874;12.526;2022-08-30T08:29:14;30.10;61.40
40538;DHT22;27925;41.874;12.526;2022-08-30T08:31:40;30.00;60.90
40538;DHT22;27925;41.874;12.526;2022-08-30T08:34:07;30.00;61.60
40538;DHT22;27925;41.874;12.526;2022-08-30T08:36:34;30.00;61.60
40538;DHT22;27925;41.874;12.526;2022-08-30T08:39:01;29.90;61.30
40538;DHT22;27925;41.874;12.526;2022-08-30T08:47:29;29.90;61.40
40538;DHT22;27925;41.874;12.526;2022-08-30T08:50:15;29.80;60.60
40538;DHT22;27925;41.874;12.526;2022-08-30T08:52:53;29.80;61.60
40538;DHT22;27925;41.874;12.526;2022-08-30T08:55:46;29.80;61.10
40538;DHT22;27925;41.874;12.526;2022-08-30T08:58:26;29.80;61.70
40538;DHT22;27925;41.874;12.526;2022-08-30T09:00:54;29.80;61.10
40538;DHT22;27925;41.874;12.526;2022-08-30T09:03:23;29.80;61.70
40538;DHT22;27925;41.874;12.526;2022-08-30T09:05:49;29.90;61.70
40538;DHT22;27925;41.874;12.526;2022-08-30T09:08:17;29.90;61.30
40538;DHT22;27925;41.874;12.526;2022-08-30T09:11:04;29.90;61.00
40538;DHT22;27925;41.874;12.526;2022-08-30T09:13:31;29.90;61.10
40538;DHT22;27925;41.874;12.526;2022-08-30T09:15:58;29.90;61.30
40538;DHT22;27925;41.874;12.526;2022-08-30T09:18:44;29.90;60.60
40538;DHT22;27925;41.874;12.526;2022-08-30T09:21:11;30.00;60.00
40538;DHT22;27925;41.874;12.526;2022-08-30T09:23:47;30.00;61.10
40538;DHT22;27925;41.874;12.526;2022-08-30T09:26:13;30.00;61.00
40538;DHT22;27925;41.874;12.526;2022-08-30T09:28:49;30.10;60.80
40538;DHT22;27925;41.874;12.526;2022-08-30T09:31:25;30.20;60.90
40538;DHT22;27925;41.874;12.526;2022-08-30T09:33:55;30.20;60.90
40538;DHT22;27925;41.874;12.526;2022-08-30T09:36:28;30.20;60.60
40538;DHT22;27925;41.874;12.526;2022-08-30T09:39:03;30.20;60.30
40538;DHT22;27925;41.874;12.526;2022-08-30T09:41:36;30.20;60.00
40538;DHT22;27925;41.874;12.526;2022-08-30T09:44:23;30.20;58.90
40538;DHT22;27925;41.874;12.526;2022-08-30T09:46:56;30.30;59.60
40538;DHT22;27925;41.874;12.526;2022-08-30T09:49:41;30.30;59.30
40538;DHT22;27925;41.874;12.526;2022-08-30T09:57:17;30.40;58.70
40538;DHT22;27925;41.874;12.526;2022-08-30T09:59:49;30.50;58.20
40538;DHT22;27925;41.874;12.526;2022-08-30T10:02:35;30.50;57.10
40538;DHT22;27925;41.874;12.526;2022-08-30T10:07:39;30.60;56.60
40538;DHT22;27925;41.874;12.526;2022-08-30T10:18:07;30.80;55.80
40538;DHT22;27925;41.874;12.526;2022-08-30T10:23:22;31.00;55.80
40538;DHT22;27925;41.874;12.526;2022-08-30T10:25:54;31.10;54.50
40538;DHT22;27925;41.874;12.526;2022-08-30T10:28:32;31.20;54.50
40538;DHT22;27925;41.874;12.526;2022-08-30T10:31:04;31.30;56.00
40538;DHT22;27925;41.874;12.526;2022-08-30T10:33:41;31.30;55.60
40538;DHT22;27925;41.874;12.526;2022-08-30T10:36:11;31.40;54.90
40538;DHT22;27925;41.874;12.526;2022-08-30T10:38:47;31.50;54.30
40538;DHT22;27925;41.874;12.526;2022-08-30T10:41:36;31.50;53.60
40538;DHT22;27925;41.874;12.526;2022-08-30T10:44:14;31.60;51.80
40538;DHT22;27925;41.874;12.526;2022-08-30T10:49:54;31.60;50.30
40538;DHT22;27925;41.874;12.526;2022-08-30T10:57:25;31.80;50.40
40538;DHT22;27925;41.874;12.526;2022-08-30T11:00:06;31.90;51.40
40538;DHT22;27925;41.874;12.526;2022-08-30T11:05:12;32.00;51.50
40538;DHT22;27925;41.874;12.526;2022-08-30T11:13:16;32.00;49.80
40538;DHT22;27925;41.874;12.526;2022-08-30T11:16:07;32.10;49.40
40538;DHT22;27925;41.874;12.526;2022-08-30T11:18:51;32.10;49.60
40538;DHT22;27925;41.874;12.526;2022-08-30T11:21:37;32.20;50.70
40538;DHT22;27925;41.874;12.526;2022-08-30T11:29:30;32.50;49.60
40538;DHT22;27925;41.874;12.526;2022-08-30T11:31:59;32.50;49.30
40538;DHT22;27925;41.874;12.526;2022-08-30T11:37:30;32.50;49.40
40538;DHT22;27925;41.874;12.526;2022-08-30T11:42:54;32.60;48.30
40538;DHT22;27925;41.874;12.526;2022-08-30T11:47:50;32.80;49.00
40538;DHT22;27925;41.874;12.526;2022-08-30T12:03:40;32.60;52.10
40538;DHT22;27925;41.874;12.526;2022-08-30T12:06:08;32.70;52.50
40538;DHT22;27925;41.874;12.526;2022-08-30T12:08:44;32.70;53.10
40538;DHT22;27925;41.874;12.526;2022-08-30T12:16:08;32.80;52.90
40538;DHT22;27925;41.874;12.526;2022-08-30T12:18:49;32.80;51.40
40538;DHT22;27925;41.874;12.526;2022-08-30T12:26:40;33.00;51.70
40538;DHT22;27925;41.874;12.526;2022-08-30T12:29:15;33.00;53.00
40538;DHT22;27925;41.874;12.526;2022-08-30T12:31:52;33.10;52.80
40538;DHT22;27925;41.874;12.526;2022-08-30T12:37:08;33.20;51.10
40538;DHT22;27925;41.874;12.526;2022-08-30T12:39:41;33.20;52.10
40538;DHT22;27925;41.874;12.526;2022-08-30T12:42:21;33.20;52.20
40538;DHT22;27925;41.874;12.526;2022-08-30T12:44:50;33.20;51.80
40538;DHT22;27925;41.874;12.526;2022-08-30T12:47:25;33.30;51.60
40538;DHT22;27925;41.874;12.526;2022-08-30T12:49:53;33.30;50.70
40538;DHT22;27925;41.874;12.526;2022-08-30T12:55:11;33.40;51.00
40538;DHT22;27925;41.874;12.526;2022-08-30T12:57:53;33.50;50.10
40538;DHT22;27925;41.874;12.526;2022-08-30T13:00:25;33.50;49.80
40538;DHT22;27925;41.874;12.526;2022-08-30T13:02:53;33.50;50.80
40538;DHT22;27925;41.874;12.526;2022-08-30T13:10:52;33.50;50.60
40538;DHT22;27925;41.874;12.526;2022-08-30T13:13:27;33.60;49.40
40538;DHT22;27925;41.874;12.526;2022-08-30T13:15:54;33.60;50.60
40538;DHT22;27925;41.874;12.526;2022-08-30T13:18:28;33.60;50.70
40538;DHT22;27925;41.874;12.526;2022-08-30T13:23:53;33.40;49.60
40538;DHT22;27925;41.874;12.526;2022-08-30T13:26:19;33.30;51.60
40538;DHT22;27925;41.874;12.526;2022-08-30T13:28:48;33.30;51.60
40538;DHT22;27925;41.874;12.526;2022-08-30T13:31:14;33.30;51.60
40538;DHT22;27925;41.874;12.526;2022-08-30T13:33:40;33.30;51.50
40538;DHT22;27925;41.874;12.526;2022-08-30T13:36:06;33.30;51.10
40538;DHT22;27925;41.874;12.526;2022-08-30T13:38:31;33.20;51.40
40538;DHT22;27925;41.874;12.526;2022-08-30T13:40:57;33.20;50.90
40538;DHT22;27925;41.874;12.526;2022-08-30T13:43:23;33.30;50.80
40538;DHT22;27925;41.874;12.526;2022-08-30T13:45:49;33.40;50.50
40538;DHT22;27925;41.874;12.526;2022-08-30T13:48:15;33.50;50.20
40538;DHT22;27925;41.874;12.526;2022-08-30T13:50:40;33.60;49.80
40538;DHT22;27925;41.874;12.526;2022-08-30T13:53:07;33.70;49.50
40538;DHT22;27925;41.874;12.526;2022-08-30T13:55:34;33.70;49.10
40538;DHT22;27925;41.874;12.526;2022-08-30T13:58:00;33.80;48.80
40538;DHT22;27925;41.874;12.526;2022-08-30T14:00:26;33.80;48.30
40538;DHT22;27925;41.874;12.526;2022-08-30T14:02:52;33.90;48.00
40538;DHT22;27925;41.874;12.526;2022-08-30T14:05:28;33.90;48.00
40538;DHT22;27925;41.874;12.526;2022-08-30T14:07:55;33.80;47.90
40538;DHT22;27925;41.874;12.526;2022-08-30T14:10:24;33.80;48.10
40538;DHT22;27925;41.874;12.526;2022-08-30T14:12:50;33.80;48.20
40538;DHT22;27925;41.874;12.526;2022-08-30T14:15:16;33.80;48.20
40538;DHT22;27925;41.874;12.526;2022-08-30T14:17:42;33.70;48.40
40538;DHT22;27925;41.874;12.526;2022-08-30T14:20:08;33.70;48.60
40538;DHT22;27925;41.874;12.526;2022-08-30T14:22:34;33.60;48.10
40538;DHT22;27925;41.874;12.526;2022-08-30T14:24:59;33.60;48.30
40538;DHT22;27925;41.874;12.526;2022-08-30T14:27:29;33.50;47.20
40538;DHT22;27925;41.874;12.526;2022-08-30T14:29:55;33.40;47.50
40538;DHT22;27925;41.874;12.526;2022-08-30T14:32:21;33.40;47.50
40538;DHT22;27925;41.874;12.526;2022-08-30T14:34:47;33.40;46.70
40538;DHT22;27925;41.874;12.526;2022-08-30T14:37:13;33.50;46.70
40538;DHT22;27925;41.874;12.526;2022-08-30T14:39:40;33.50;46.90
40538;DHT22;27925;41.874;12.526;2022-08-30T14:42:06;33.50;47.10
40538;DHT22;27925;41.874;12.526;2022-08-30T14:44:32;33.60;47.30
40538;DHT22;27925;41.874;12.526;2022-08-30T14:46:58;33.50;47.00
40538;DHT22;27925;41.874;12.526;2022-08-30T14:49:25;33.50;47.00
40538;DHT22;27925;41.874;12.526;2022-08-30T14:51:52;33.50;47.00
40538;DHT22;27925;41.874;12.526;2022-08-30T14:54:23;33.50;47.00
40538;DHT22;27925;41.874;12.526;2022-08-30T14:56:49;33.50;46.60
40538;DHT22;27925;41.874;12.526;2022-08-30T14:59:15;33.60;46.50
40538;DHT22;27925;41.874;12.526;2022-08-30T15:01:43;33.60;45.80
40538;DHT22;27925;41.874;12.526;2022-08-30T15:04:09;33.50;44.90
40538;DHT22;27925;41.874;12.526;2022-08-30T15:06:37;33.40;45.00
40538;DHT22;27925;41.874;12.526;2022-08-30T15:09:06;33.40;45.00
40538;DHT22;27925;41.874;12.526;2022-08-30T15:11:32;33.50;45.40
40538;DHT22;27925;41.874;12.526;2022-08-30T15:13:59;33.60;45.30
40538;DHT22;27925;41.874;12.526;2022-08-30T15:16:28;33.60;44.30
40538;DHT22;27925;41.874;12.526;2022-08-30T15:18:55;33.70;44.20
40538;DHT22;27925;41.874;12.526;2022-08-30T15:21:30;33.60;42.90
40538;DHT22;27925;41.874;12.526;2022-08-30T15:23:56;33.60;42.50
40538;DHT22;27925;41.874;12.526;2022-08-30T15:26:22;33.70;42.70
40538;DHT22;27925;41.874;12.526;2022-08-30T15:28:49;33.70;42.70
40538;DHT22;27925;41.874;12.526;2022-08-30T15:31:18;33.70;42.60
40538;DHT22;27925;41.874;12.526;2022-08-30T15:33:44;33.70;42.60
40538;DHT22;27925;41.874;12.526;2022-08-30T15:36:11;33.70;42.50
40538;DHT22;27925;41.874;12.526;2022-08-30T15:38:37;33.70;42.80
40538;DHT22;27925;41.874;12.526;2022-08-30T15:41:06;33.60;43.10
40538;DHT22;27925;41.874;12.526;2022-08-30T15:43:33;33.50;43.30
40538;DHT22;27925;41.874;12.526;2022-08-30T15:48:44;33.40;43.80
40538;DHT22;27925;41.874;12.526;2022-08-30T15:51:10;33.40;44.10
40538;DHT22;27925;41.874;12.526;2022-08-30T15:53:35;33.40;44.20
40538;DHT22;27925;41.874;12.526;2022-08-30T15:56:01;33.30;44.70
40538;DHT22;27925;41.874;12.526;2022-08-30T15:58:27;33.30;45.10
40538;DHT22;27925;41.874;12.526;2022-08-30T16:00:53;33.20;46.00
40538;DHT22;27925;41.874;12.526;2022-08-30T16:03:18;33.10;45.80
40538;DHT22;27925;41.874;12.526;2022-08-30T16:05:46;33.00;45.50
40538;DHT22;27925;41.874;12.526;2022-08-30T16:08:11;33.00;45.10
40538;DHT22;27925;41.874;12.526;2022-08-30T16:10:40;32.80;44.80
40538;DHT22;27925;41.874;12.526;2022-08-30T16:13:12;32.70;45.40
40538;DHT22;27925;41.874;12.526;2022-08-30T16:16:12;32.60;45.90
40538;DHT22;27925;41.874;12.526;2022-08-30T16:18:44;32.60;46.20
40538;DHT22;27925;41.874;12.526;2022-08-30T16:24:16;32.40;46.70
40538;DHT22;27925;41.874;12.526;2022-08-30T16:29:42;32.30;47.30
40538;DHT22;27925;41.874;12.526;2022-08-30T16:32:11;32.20;48.20
40538;DHT22;27925;41.874;12.526;2022-08-30T16:34:36;32.10;49.40
40538;DHT22;27925;41.874;12.526;2022-08-30T16:37:05;32.10;49.90
40538;DHT22;27925;41.874;12.526;2022-08-30T16:39:33;32.00;48.70
40538;DHT22;27925;41.874;12.526;2022-08-30T16:41:59;32.00;50.00
40538;DHT22;27925;41.874;12.526;2022-08-30T16:44:26;31.90;50.10
40538;DHT22;27925;41.874;12.526;2022-08-30T16:47:01;31.80;50.40
40538;DHT22;27925;41.874;12.526;2022-08-30T16:49:27;31.70;50.80
40538;DHT22;27925;41.874;12.526;2022-08-30T16:51:56;31.60;52.50
40538;DHT22;27925;41.874;12.526;2022-08-30T16:54:22;31.60;52.60
40538;DHT22;27925;41.874;12.526;2022-08-30T16:56:48;31.50;54.40
40538;DHT22;27925;41.874;12.526;2022-08-30T16:59:13;31.40;55.30
40538;DHT22;27925;41.874;12.526;2022-08-30T17:01:41;31.40;56.20
40538;DHT22;27925;41.874;12.526;2022-08-30T17:04:09;31.30;56.90
40538;DHT22;27925;41.874;12.526;2022-08-30T17:06:37;31.20;57.90